Pilot information for Arak Airport

[ general | frequencies | runways | weather | notam | navaids | links ]

Caution: This page displays community-maintained data: information may be missing, incorrect, or out of date. Please confirm with an official source before making travel plans.

General information for Arak Airport

Airport codes: AJK OIHR
Type: local airport(light traffic)
Scheduled airline service: no
Serves: Araak, Markazi Province, Iran
Latitude: 34.138100 | 34 8.285980 N | N34 08 17
Longitude: 49.847301 | 49 50.838089 E | E049 50 50
Field elevation: 5,440 ft/1,658 m MSL
Magnetic variation: 3.4°E

Radio communication frequencies for Arak Airport

AFIS: 118.65 MHz (INFO)

Members can add and update frequencies.

Runways at Arak Airport

9,811 x 148 ft (2,990 x 45 m) — paved — not lighted

Members can add and update runway information.

Aviation weather for Arak Airport

Current conditions (METAR) for Arak Airport

Retrieved 2015/10/08 06:30:

OIHR 080630Z 24019G29KT 8000 FEW040 SCT200 24/05 Q1021

Forecast (TAF) for Arak Airport

Retrieved 2009/12/20 18:00:

TAF OIHH OIHR 201800Z 2021/2112 27004MPS CAVOK

Notices to Airmen (NOTAM) for Arak Airport

Please confirm all NOTAMs at the original source! These are for information only, and may be wrong, out of date, or incomplete.

NOTAM A3198/15: Arak Airport (OIHR)
A3198/15 NOTAMR A1856/15
A) OIHR B) 1509290550 C) 1512312359 EST
E) VOR/DME ARK 114.800MHZ CH 95X U/S.
CREATED: 29 Sep 2015 05:53:00